KMTN/MTN METAR and TAF weather

Enter ICAO airport designator
Station Type Date Time Source
KMTN METAR 2019/10/18 10:54 UTC NOAA

KMTN 181054Z 26006KT 10SM FEW050 09/03 A2990


Station Type Date Time Source
KMTN Decoded METAR 2019/10/18 10:54 UTC NOAA

Baltimore / Martin, MD, United States (KMTN) 39-20N 076-25W
Oct 18, 2019 - 06:54 AM EDT / 2019.10.18 1054 UTC
Wind: from the W (260 degrees) at 7 MPH (6 KT):0
Visibility: 10 mile(s):0
Sky conditions: mostly clear
Temperature: 48 F (9 C)
Dew Point: 37 F (3 C)
Relative Humidity: 66%
Pressure (altimeter): 29.9 in. Hg (1012 hPa)
ob: KMTN 181054Z 26006KT 10SM FEW050 09/03 A2990
cycle: 11

Station Type Date Time Source
KMTN TAF 2019/10/18 06:24 UTC NOAA

TAF KMTN 180520Z 1806/1906 27008G16KT P6SM FEW050
FM181300 30012G22KT P6SM FEW050
FM181900 30010G18KT P6SM SKC
FM182200 30008KT P6SM SKC
FM190100 VRB03KT P6SM SKC
AMD NOT SKED

Example: see airport list